createdAt,value
2022-10-14T00:01:27.986Z,13.80
2022-10-14T00:06:52.070Z,13.80
2022-10-14T00:09:20.375Z,13.70
2022-10-14T00:11:49.260Z,13.70
2022-10-14T00:14:21.319Z,13.80
2022-10-14T00:16:54.874Z,13.80
2022-10-14T00:19:23.519Z,13.80
2022-10-14T00:21:51.798Z,13.90
2022-10-14T00:24:20.137Z,13.80
2022-10-14T00:26:48.324Z,13.70
2022-10-14T00:29:20.122Z,13.70
2022-10-14T00:31:49.019Z,13.80
2022-10-14T00:34:17.318Z,13.90
2022-10-14T00:36:45.651Z,13.80
2022-10-14T00:39:20.209Z,13.80
2022-10-14T00:41:48.786Z,13.90
2022-10-14T00:44:54.498Z,13.90
2022-10-14T00:47:24.461Z,13.80
2022-10-14T00:49:53.280Z,13.80
2022-10-14T00:52:24.705Z,13.70
2022-10-14T00:54:57.726Z,13.70
2022-10-14T00:57:27.329Z,13.60
2022-10-14T01:00:01.327Z,13.80
2022-10-14T01:02:31.296Z,13.70
2022-10-14T01:05:00.199Z,13.70
2022-10-14T01:07:37.267Z,13.70
2022-10-14T01:10:14.021Z,13.60
2022-10-14T01:12:56.532Z,13.60
2022-10-14T01:15:35.550Z,13.60
2022-10-14T01:18:26.055Z,13.60
2022-10-14T01:21:12.951Z,13.50
2022-10-14T01:24:09.274Z,13.50
2022-10-14T01:27:17.131Z,13.40
2022-10-14T01:30:22.644Z,13.60
2022-10-14T01:33:03.024Z,13.60
2022-10-14T01:35:57.426Z,13.60
2022-10-14T01:38:30.921Z,13.60
2022-10-14T01:41:07.706Z,13.60
2022-10-14T01:43:38.211Z,13.70
2022-10-14T01:46:09.163Z,13.70
2022-10-14T01:48:45.348Z,13.60
2022-10-14T01:51:19.242Z,13.60
2022-10-14T01:53:54.880Z,13.70
2022-10-14T01:56:27.557Z,13.80
2022-10-14T01:58:57.448Z,13.80
2022-10-14T02:01:27.226Z,13.70
2022-10-14T02:03:55.713Z,13.90
2022-10-14T02:06:31.197Z,13.80
2022-10-14T02:09:17.425Z,13.70
2022-10-14T02:11:56.056Z,13.80
2022-10-14T02:14:34.683Z,13.70
2022-10-14T02:17:07.611Z,13.80
2022-10-14T02:19:43.567Z,13.90
2022-10-14T02:22:22.300Z,13.70
2022-10-14T02:24:55.974Z,13.60
2022-10-14T02:27:27.614Z,13.70
2022-10-14T02:29:57.988Z,13.80
2022-10-14T02:32:29.641Z,13.60
2022-10-14T02:35:00.559Z,13.50
2022-10-14T02:37:30.747Z,13.50
2022-10-14T02:40:06.264Z,13.50
2022-10-14T02:42:34.814Z,13.60
2022-10-14T02:45:07.211Z,13.70
2022-10-14T02:47:36.838Z,13.70
2022-10-14T02:50:05.886Z,13.80
2022-10-14T02:52:34.058Z,13.80
2022-10-14T02:55:02.351Z,13.80
2022-10-14T02:57:30.710Z,13.80
2022-10-14T02:59:59.070Z,13.80
2022-10-14T03:02:27.347Z,13.80
2022-10-14T03:04:57.924Z,13.70
2022-10-14T03:07:26.307Z,13.80
2022-10-14T03:09:58.846Z,13.80
2022-10-14T03:12:27.206Z,13.60
2022-10-14T03:14:57.654Z,13.60
2022-10-14T03:17:27.236Z,13.60
2022-10-14T03:20:01.346Z,13.50
2022-10-14T03:22:30.474Z,13.50
2022-10-14T03:24:58.782Z,13.60
2022-10-14T03:27:37.406Z,13.60
2022-10-14T03:30:10.993Z,13.50
2022-10-14T03:32:47.649Z,13.50
2022-10-14T03:35:46.225Z,13.50
2022-10-14T03:38:18.314Z,13.40
2022-10-14T03:40:47.956Z,13.40
2022-10-14T03:43:16.381Z,13.50
2022-10-14T03:45:52.313Z,13.50
2022-10-14T03:48:23.240Z,13.50
2022-10-14T03:50:52.621Z,13.50
2022-10-14T03:53:21.411Z,13.60
2022-10-14T03:55:51.126Z,13.60
2022-10-14T03:58:19.345Z,13.50
2022-10-14T04:00:51.745Z,13.60
2022-10-14T04:03:41.115Z,13.40
2022-10-14T04:06:10.628Z,13.50
2022-10-14T04:08:38.629Z,13.40
2022-10-14T04:11:22.126Z,13.40
2022-10-14T04:13:52.589Z,13.40
2022-10-14T04:16:21.361Z,13.40
2022-10-14T04:19:03.217Z,13.40
2022-10-14T04:21:33.513Z,13.40
2022-10-14T04:24:06.099Z,13.50
2022-10-14T04:26:44.058Z,13.50
2022-10-14T04:29:18.373Z,13.50
2022-10-14T04:32:12.528Z,13.50
2022-10-14T04:34:40.724Z,13.30
2022-10-14T04:37:11.655Z,13.40
2022-10-14T04:40:06.984Z,13.50
2022-10-14T04:42:39.954Z,13.70
2022-10-14T04:45:16.726Z,13.70
2022-10-14T04:47:51.158Z,13.60
2022-10-14T04:50:22.728Z,13.60
2022-10-14T04:53:13.754Z,13.60
2022-10-14T04:55:54.497Z,13.50
2022-10-14T04:58:22.744Z,13.50
2022-10-14T05:00:55.153Z,13.50
2022-10-14T05:03:33.798Z,13.60
2022-10-14T05:06:01.831Z,13.50
2022-10-14T05:08:31.713Z,13.50
2022-10-14T05:11:02.749Z,13.70
2022-10-14T05:13:43.227Z,13.70
2022-10-14T05:16:11.405Z,13.60
2022-10-14T05:18:40.357Z,13.40
2022-10-14T05:21:11.247Z,13.60
2022-10-14T05:23:51.827Z,13.80
2022-10-14T05:26:20.167Z,13.80
2022-10-14T05:28:49.949Z,13.90
2022-10-14T05:31:18.945Z,13.90
2022-10-14T05:33:54.786Z,13.70
2022-10-14T05:36:23.006Z,13.70
2022-10-14T05:38:55.683Z,13.50
2022-10-14T05:41:26.788Z,13.40
2022-10-14T05:43:55.787Z,13.40
2022-10-14T05:46:24.185Z,13.40
2022-10-14T05:48:57.106Z,13.50
2022-10-14T05:51:26.223Z,13.40
2022-10-14T05:54:02.420Z,13.40
2022-10-14T05:56:34.641Z,13.40
2022-10-14T05:59:03.181Z,13.30
2022-10-14T06:01:31.463Z,13.30
2022-10-14T06:03:59.759Z,13.30
2022-10-14T06:06:29.262Z,13.40
2022-10-14T06:08:58.049Z,13.30
2022-10-14T06:11:27.936Z,13.30
2022-10-14T06:13:55.963Z,13.40
2022-10-14T06:16:24.370Z,13.40
2022-10-14T06:18:54.540Z,13.40
2022-10-14T06:21:23.521Z,13.40
2022-10-14T06:23:51.554Z,13.40
2022-10-14T06:26:19.682Z,13.30
2022-10-14T06:28:49.143Z,13.40
2022-10-14T06:31:17.272Z,13.40
2022-10-14T06:33:46.852Z,13.40
2022-10-14T06:36:14.927Z,13.30
2022-10-14T06:38:42.958Z,13.30
2022-10-14T06:41:12.615Z,13.40
2022-10-14T06:43:42.191Z,13.30
2022-10-14T06:46:12.547Z,13.30
2022-10-14T06:48:41.318Z,13.30
2022-10-14T06:51:11.952Z,13.30
2022-10-14T06:53:40.295Z,13.30
2022-10-14T06:56:11.816Z,13.40
2022-10-14T06:58:39.855Z,13.30
2022-10-14T07:01:09.386Z,13.30
2022-10-14T07:03:39.427Z,13.30
2022-10-14T07:06:08.888Z,13.40
2022-10-14T07:08:37.252Z,13.40
2022-10-14T07:11:06.081Z,13.40
2022-10-14T07:13:35.158Z,13.40
2022-10-14T07:16:03.349Z,13.40
2022-10-14T07:18:31.885Z,13.40
2022-10-14T07:21:04.597Z,13.40
2022-10-14T07:23:32.997Z,13.50
2022-10-14T07:26:01.810Z,13.50
2022-10-14T07:28:30.002Z,13.50
2022-10-14T07:30:59.696Z,13.50
2022-10-14T07:33:27.940Z,13.40
2022-10-14T07:35:56.258Z,13.50
2022-10-14T07:38:25.626Z,13.50
2022-10-14T07:41:01.721Z,13.50
2022-10-14T07:43:30.274Z,13.50
2022-10-14T07:46:02.715Z,13.50
2022-10-14T07:48:44.959Z,13.50
2022-10-14T07:51:19.749Z,13.50
2022-10-14T07:53:50.113Z,13.50
2022-10-14T07:56:18.169Z,13.60
2022-10-14T07:58:46.875Z,13.60
2022-10-14T08:01:15.623Z,13.70
2022-10-14T08:03:45.271Z,13.70
2022-10-14T08:06:14.068Z,13.70
2022-10-14T08:08:43.918Z,13.80
2022-10-14T08:11:15.644Z,13.80
2022-10-14T08:13:46.202Z,13.80
2022-10-14T08:16:16.761Z,13.80
2022-10-14T08:18:45.226Z,13.80
2022-10-14T08:21:13.494Z,13.80
2022-10-14T08:23:41.466Z,13.80
2022-10-14T08:26:20.930Z,13.90
2022-10-14T08:28:49.436Z,14.00
2022-10-14T08:31:18.073Z,14.00
2022-10-14T08:33:46.164Z,14.00
2022-10-14T08:36:14.717Z,14.10
2022-10-14T08:38:42.818Z,14.00
2022-10-14T08:41:25.947Z,13.90
2022-10-14T08:44:03.165Z,13.90
2022-10-14T08:46:37.804Z,13.90
2022-10-14T08:49:12.954Z,14.00
2022-10-14T08:51:45.986Z,14.10
2022-10-14T08:54:21.324Z,14.20
2022-10-14T08:56:50.895Z,14.30
2022-10-14T08:59:21.424Z,14.30
2022-10-14T09:01:53.560Z,14.40
2022-10-14T09:04:22.225Z,14.40
2022-10-14T09:06:52.039Z,14.40
2022-10-14T09:09:24.732Z,14.30
2022-10-14T09:11:57.747Z,14.30
2022-10-14T09:14:28.595Z,14.30
2022-10-14T09:17:01.794Z,14.30
2022-10-14T09:19:33.284Z,14.40
2022-10-14T09:22:02.492Z,14.50
2022-10-14T09:24:35.461Z,14.60
2022-10-14T09:27:08.167Z,14.70
2022-10-14T09:29:42.694Z,14.90
2022-10-14T09:32:14.891Z,14.90
2022-10-14T09:34:47.036Z,15.00
2022-10-14T09:37:25.993Z,15.10
2022-10-14T09:39:57.426Z,15.10
2022-10-14T09:42:33.884Z,15.00
2022-10-14T09:45:12.006Z,15.10
2022-10-14T09:47:54.063Z,15.10
2022-10-14T09:50:25.647Z,15.10
2022-10-14T09:52:57.541Z,15.10
2022-10-14T09:55:25.789Z,15.20
2022-10-14T09:58:20.069Z,15.10
2022-10-14T10:00:48.358Z,14.90
2022-10-14T10:03:27.477Z,14.90
2022-10-14T10:06:02.602Z,14.80
2022-10-14T10:08:30.885Z,14.90
2022-10-14T10:11:06.467Z,14.80
2022-10-14T10:13:47.113Z,14.90
2022-10-14T10:16:24.830Z,14.80
2022-10-14T10:18:55.179Z,14.80
2022-10-14T10:21:26.499Z,14.80
2022-10-14T10:23:57.638Z,14.80
2022-10-14T10:26:28.301Z,14.90
2022-10-14T10:28:59.086Z,14.90
2022-10-14T10:31:44.473Z,14.90
2022-10-14T10:34:47.514Z,14.90
2022-10-14T10:37:26.746Z,14.80
2022-10-14T10:40:20.301Z,14.70
2022-10-14T10:42:59.517Z,14.60
2022-10-14T10:45:40.464Z,14.60
2022-10-14T10:48:18.497Z,14.70
2022-10-14T10:50:58.765Z,14.70
2022-10-14T10:53:55.534Z,14.80
2022-10-14T10:56:34.397Z,14.80
2022-10-14T10:59:35.306Z,14.90
2022-10-14T11:02:31.352Z,14.90
2022-10-14T11:05:10.626Z,14.90
2022-10-14T11:08:06.844Z,14.90
2022-10-14T11:11:05.074Z,14.90
2022-10-14T11:13:43.565Z,14.80
2022-10-14T11:16:20.533Z,14.80
2022-10-14T11:18:52.121Z,14.80
2022-10-14T11:21:30.938Z,14.90
2022-10-14T11:24:08.642Z,14.80
2022-10-14T11:27:00.444Z,14.90
2022-10-14T11:29:42.951Z,14.80
2022-10-14T11:32:20.920Z,15.00
2022-10-14T11:35:00.386Z,15.10
2022-10-14T11:37:43.435Z,15.20
2022-10-14T11:40:21.356Z,15.30
2022-10-14T11:43:02.522Z,15.40
2022-10-14T11:45:50.669Z,15.60
2022-10-14T11:48:33.769Z,15.70
2022-10-14T11:51:15.011Z,15.80
2022-10-14T11:54:03.684Z,15.70
2022-10-14T11:56:43.747Z,15.70
2022-10-14T11:59:36.777Z,15.70
2022-10-14T12:02:19.063Z,15.80
2022-10-14T12:04:54.413Z,15.90
2022-10-14T12:07:28.253Z,15.80
2022-10-14T12:10:01.178Z,15.60
2022-10-14T12:12:31.524Z,15.80
2022-10-14T12:15:03.859Z,16.10
2022-10-14T12:17:37.076Z,16.30
2022-10-14T12:20:20.708Z,16.40
2022-10-14T12:22:52.493Z,16.40
2022-10-14T12:25:24.630Z,16.20
2022-10-14T12:27:54.996Z,16.20
2022-10-14T12:30:33.947Z,16.20
2022-10-14T12:33:06.646Z,16.00
2022-10-14T12:35:59.209Z,15.90
2022-10-14T12:38:29.868Z,15.70
2022-10-14T12:41:35.102Z,15.70
2022-10-14T12:44:04.697Z,15.70
2022-10-14T12:46:33.505Z,15.60
2022-10-14T12:49:01.560Z,15.50
2022-10-14T12:51:29.686Z,15.50
2022-10-14T12:54:15.329Z,15.60
2022-10-14T12:56:58.030Z,15.60
2022-10-14T12:59:31.801Z,15.70
2022-10-14T13:02:04.432Z,15.80
2022-10-14T13:04:33.170Z,15.70
2022-10-14T13:07:47.121Z,15.70
2022-10-14T13:10:47.320Z,15.80
2022-10-14T13:13:52.389Z,16.00
2022-10-14T13:17:06.117Z,16.20
2022-10-14T13:19:43.464Z,16.40
2022-10-14T13:22:36.667Z,16.30
2022-10-14T13:25:12.987Z,16.40
2022-10-14T13:28:11.853Z,16.50
2022-10-14T13:30:52.333Z,16.50
2022-10-14T13:33:27.522Z,16.50
2022-10-14T13:36:06.553Z,16.50
2022-10-14T13:38:35.771Z,16.50
2022-10-14T13:41:04.549Z,16.50
2022-10-14T13:43:39.460Z,16.50
2022-10-14T13:46:13.357Z,16.40
2022-10-14T13:48:44.896Z,16.30
2022-10-14T13:51:37.393Z,16.10
2022-10-14T13:54:18.236Z,16.00
2022-10-14T13:57:19.805Z,16.00
2022-10-14T14:00:33.194Z,16.00
2022-10-14T14:02:43.390Z,16.10
2022-10-14T14:05:16.782Z,16.00
2022-10-14T14:10:39.219Z,16.10
2022-10-14T14:13:15.032Z,16.00
2022-10-14T14:15:50.931Z,16.10
2022-10-14T14:18:55.636Z,16.10
2022-10-14T14:21:26.703Z,16.10
2022-10-14T14:23:56.545Z,16.10
2022-10-14T14:26:29.882Z,16.00
2022-10-14T14:28:57.978Z,15.90
2022-10-14T14:31:47.919Z,15.80
2022-10-14T14:34:20.884Z,15.80
2022-10-14T14:36:53.359Z,15.70
2022-10-14T14:39:28.590Z,15.60
2022-10-14T14:41:58.866Z,15.60
2022-10-14T14:44:28.751Z,15.60
2022-10-14T14:47:00.317Z,15.60
2022-10-14T14:49:30.662Z,15.60
2022-10-14T14:52:01.079Z,15.60
2022-10-14T14:54:29.750Z,15.60
2022-10-14T14:57:03.778Z,15.60
2022-10-14T14:59:35.441Z,15.70
2022-10-14T15:02:13.317Z,15.70
2022-10-14T15:04:41.568Z,15.70
2022-10-14T15:07:21.123Z,15.70
2022-10-14T15:09:52.551Z,15.60
2022-10-14T15:12:23.276Z,15.50
2022-10-14T15:14:53.030Z,15.50
2022-10-14T15:17:32.088Z,15.40
2022-10-14T15:20:21.963Z,15.50
2022-10-14T15:22:50.511Z,15.50
2022-10-14T15:25:28.886Z,15.50
2022-10-14T15:27:57.794Z,15.60
2022-10-14T15:30:34.563Z,15.50
2022-10-14T15:33:16.382Z,15.50
2022-10-14T15:35:45.966Z,15.50
2022-10-14T15:38:17.111Z,15.60
2022-10-14T15:40:45.999Z,15.50
2022-10-14T15:43:17.685Z,15.60
2022-10-14T15:46:11.574Z,15.60
2022-10-14T15:48:46.941Z,15.60
2022-10-14T15:51:19.598Z,15.60
2022-10-14T15:53:49.004Z,15.60
2022-10-14T15:56:17.109Z,15.50
2022-10-14T15:58:45.106Z,15.60
2022-10-14T16:01:19.015Z,15.50
2022-10-14T16:03:48.983Z,15.40
2022-10-14T16:06:19.255Z,15.40
2022-10-14T16:08:47.413Z,15.40
2022-10-14T16:11:20.720Z,15.30
2022-10-14T16:13:48.738Z,15.20
2022-10-14T16:16:20.022Z,15.20
2022-10-14T16:18:49.341Z,15.20
2022-10-14T16:21:18.152Z,15.10
2022-10-14T16:23:46.184Z,15.20
2022-10-14T16:26:14.424Z,15.20
2022-10-14T16:28:42.539Z,15.20
2022-10-14T16:31:13.462Z,15.20
2022-10-14T16:33:44.846Z,15.20
2022-10-14T16:36:16.447Z,15.30
2022-10-14T16:38:44.927Z,15.20
2022-10-14T16:41:14.515Z,15.20
2022-10-14T16:43:42.533Z,15.20
2022-10-14T16:46:13.219Z,15.20
2022-10-14T16:48:43.682Z,15.30
2022-10-14T16:51:11.719Z,15.30
2022-10-14T16:53:45.106Z,15.20
2022-10-14T16:56:33.592Z,15.10
2022-10-14T16:59:01.966Z,15.10
2022-10-14T17:01:30.254Z,15.10
2022-10-14T17:03:59.266Z,15.00
2022-10-14T17:06:28.034Z,15.00
2022-10-14T17:08:57.448Z,14.90
2022-10-14T17:11:27.299Z,14.90
2022-10-14T17:13:57.606Z,14.80
2022-10-14T17:16:26.319Z,14.80
2022-10-14T17:18:54.335Z,14.90
2022-10-14T17:21:22.633Z,14.90
2022-10-14T17:23:50.756Z,14.90
2022-10-14T17:26:20.670Z,14.90
2022-10-14T17:28:49.754Z,14.90
2022-10-14T17:31:20.153Z,14.80
2022-10-14T17:33:48.184Z,14.80
2022-10-14T17:36:19.385Z,14.80
2022-10-14T17:38:48.652Z,14.90
2022-10-14T17:41:16.680Z,14.90
2022-10-14T17:43:49.302Z,14.90
2022-10-14T17:46:20.666Z,14.90
2022-10-14T17:48:50.948Z,14.90
2022-10-14T17:51:20.277Z,14.90
2022-10-14T17:53:48.814Z,14.80
2022-10-14T17:56:16.910Z,14.80
2022-10-14T17:58:46.250Z,14.70
2022-10-14T18:01:16.092Z,14.60
2022-10-14T18:03:45.915Z,14.60
2022-10-14T18:06:15.855Z,14.60
2022-10-14T18:08:46.033Z,14.60
2022-10-14T18:11:14.361Z,14.60
2022-10-14T18:13:42.425Z,14.60
2022-10-14T18:16:14.325Z,14.60
2022-10-14T18:18:43.126Z,14.60
2022-10-14T18:21:11.637Z,14.60
2022-10-14T18:23:41.818Z,14.60
2022-10-14T18:26:13.401Z,14.50
2022-10-14T18:28:43.704Z,14.60
2022-10-14T18:31:15.294Z,14.60
2022-10-14T18:33:44.474Z,14.50
2022-10-14T18:36:14.838Z,14.60
2022-10-14T18:38:43.510Z,14.60
2022-10-14T18:41:14.404Z,14.60
2022-10-14T18:43:43.889Z,14.50
2022-10-14T18:46:15.396Z,14.40
2022-10-14T18:48:44.818Z,14.40
2022-10-14T18:51:13.626Z,14.40
2022-10-14T18:53:43.561Z,14.40
2022-10-14T18:56:15.505Z,14.40
2022-10-14T18:58:44.308Z,14.40
2022-10-14T19:01:15.882Z,14.40
2022-10-14T19:03:45.174Z,14.50
2022-10-14T19:41:12.144Z,14.50
2022-10-14T19:43:41.157Z,14.30
2022-10-14T19:46:46.782Z,14.40
2022-10-14T19:49:19.155Z,14.30
2022-10-14T19:56:44.151Z,14.40
2022-10-14T19:59:13.448Z,14.40
2022-10-14T20:01:41.910Z,14.30
2022-10-14T20:04:10.143Z,14.20
2022-10-14T20:06:40.164Z,14.20
2022-10-14T20:09:09.145Z,14.10
2022-10-14T20:11:37.182Z,14.20
2022-10-14T20:14:05.263Z,14.20
2022-10-14T20:16:33.353Z,14.10
2022-10-14T20:19:01.744Z,14.10
2022-10-14T20:21:30.977Z,14.20
2022-10-14T20:24:00.694Z,14.10
2022-10-14T20:26:28.837Z,14.10
2022-10-14T20:28:56.939Z,14.10
2022-10-14T20:31:26.151Z,14.10
2022-10-14T20:33:56.537Z,14.10
2022-10-14T20:36:25.150Z,14.10
2022-10-14T20:38:53.247Z,14.00
2022-10-14T20:41:25.304Z,14.00
2022-10-14T20:43:55.058Z,14.00
2022-10-14T20:46:24.745Z,14.10
2022-10-14T20:48:55.825Z,14.10
2022-10-14T20:51:24.449Z,14.20
2022-10-14T20:54:01.677Z,14.20
2022-10-14T20:56:35.294Z,14.20
2022-10-14T20:59:05.019Z,14.10
2022-10-14T21:01:34.339Z,14.10
2022-10-14T21:04:03.570Z,14.10
2022-10-14T21:06:32.150Z,14.10
2022-10-14T21:09:00.875Z,14.10
2022-10-14T21:11:28.991Z,14.10
2022-10-14T21:14:00.219Z,14.10
2022-10-14T21:16:30.238Z,14.10
2022-10-14T21:18:59.881Z,14.10
2022-10-14T21:21:29.616Z,14.10
2022-10-14T21:23:57.978Z,14.20
2022-10-14T21:26:26.271Z,14.20
2022-10-14T21:28:54.357Z,14.20
2022-10-14T21:31:23.981Z,14.10
2022-10-14T21:33:59.893Z,14.10
2022-10-14T21:36:30.707Z,14.10
2022-10-14T21:39:00.821Z,14.10
2022-10-14T21:41:29.024Z,14.10
2022-10-14T21:43:59.224Z,14.10
2022-10-14T21:46:29.278Z,14.10
2022-10-14T21:48:58.283Z,14.20
2022-10-14T21:51:27.750Z,14.20
2022-10-14T21:53:56.038Z,14.20
2022-10-14T21:56:26.559Z,14.20
2022-10-14T21:58:55.493Z,14.10
2022-10-14T22:01:26.179Z,14.10
2022-10-14T22:03:57.146Z,14.10
2022-10-14T22:06:25.872Z,14.10
2022-10-14T22:08:57.250Z,14.10
2022-10-14T22:11:27.342Z,14.10
2022-10-14T22:13:56.496Z,14.10
2022-10-14T22:16:25.071Z,14.10
2022-10-14T22:18:55.687Z,14.10
2022-10-14T22:21:26.156Z,14.20
2022-10-14T22:23:54.697Z,14.20
2022-10-14T22:26:25.013Z,14.10
2022-10-14T22:28:59.113Z,14.10
2022-10-14T22:31:28.197Z,14.20
2022-10-14T22:33:57.594Z,14.20
2022-10-14T22:36:28.158Z,14.20
2022-10-14T22:38:57.087Z,14.20
2022-10-14T22:41:29.797Z,14.20
2022-10-14T22:44:00.156Z,14.10
2022-10-14T22:46:30.066Z,14.10
2022-10-14T22:49:01.752Z,14.20
2022-10-14T22:51:31.083Z,14.20
2022-10-14T22:53:59.503Z,14.20
2022-10-14T22:56:29.401Z,14.20
2022-10-14T22:58:59.356Z,14.20
2022-10-14T23:01:28.277Z,14.20
2022-10-14T23:03:57.367Z,14.20
2022-10-14T23:06:27.547Z,14.20
2022-10-14T23:08:55.696Z,14.20
2022-10-14T23:11:26.014Z,14.20
2022-10-14T23:13:54.280Z,14.30
2022-10-14T23:16:23.798Z,14.20
2022-10-14T23:18:52.166Z,14.20
2022-10-14T23:21:22.506Z,14.20
2022-10-14T23:23:53.133Z,14.20
2022-10-14T23:26:22.539Z,14.30
2022-10-14T23:28:52.358Z,14.20
2022-10-14T23:31:22.630Z,14.20
2022-10-14T23:33:52.403Z,14.30
2022-10-14T23:36:21.674Z,14.30
2022-10-14T23:38:52.432Z,14.30
2022-10-14T23:41:22.156Z,14.30
2022-10-14T23:43:50.624Z,14.30
2022-10-14T23:46:19.010Z,14.30
2022-10-14T23:48:55.501Z,14.30
2022-10-14T23:51:35.473Z,14.40
2022-10-14T23:54:05.471Z,14.30
2022-10-14T23:56:33.483Z,14.40
2022-10-14T23:59:01.482Z,14.30
